Time;durP1;ratioP1;P1;durP2;ratioP2;P2;SDS_P1;SDS_P2;PMS_P1;PMS_P2;Temp;Humidity;BMP_temperature;BMP_pressure;BME280_temperature;BME280_humidity;BME280_pressure;Samples;Min_cycle;Max_cycle;Signal;HPM_P1;HPM_P2
2022/05/25 00:01:24;;;;;;;;;;;;;;;17.14;41.69;100834.50;5063356;28;866;-56
2022/05/25 00:03:49;;;;;;;;;;;;;;;17.36;43.00;100837.78;5065104;28;907;-56
2022/05/25 00:06:15;;;;;;;;;;;;;;;17.42;43.89;100841.34;5057548;28;798;-57
2022/05/25 00:08:40;;;;;;;;;;;;;;;17.49;44.29;100836.38;5057606;28;789;-57
2022/05/25 00:11:06;;;;;;;;;;;;;;;17.64;44.60;100841.00;5057502;28;826;-57
2022/05/25 00:13:32;;;;;;;;;;;;;;;17.71;45.02;100849.81;5062092;28;873;-57
2022/05/25 00:15:57;;;;;;;;;;;;;;;17.75;45.26;100845.41;5059615;28;1151;-56
2022/05/25 00:18:23;;;;;;;;;;;;;;;17.74;45.31;100842.91;5060326;28;902;-56
2022/05/25 00:20:48;;;;;;;;;;;;;;;17.82;45.60;100842.31;5057749;28;1910;-56
2022/05/25 00:23:14;;;;;;;;;;;;;;;17.86;45.65;100851.66;5057021;28;740;-56
2022/05/25 00:25:40;;;;;;;;;;;;;;;17.88;45.79;100834.88;5064921;28;883;-58
2022/05/25 00:28:11;;;;;;;;;;;;;;;17.93;45.62;100843.97;5057036;28;790;-57
2022/05/25 00:30:37;;;;;;;;;;;;;;;17.90;45.67;100840.94;5059224;28;892;-56
2022/05/25 00:33:03;;;;;;;;;;;;;;;17.97;45.59;100835.97;5056428;28;723;-57
2022/05/25 00:35:30;;;;;;;;;;;;;;;17.97;45.97;100844.22;5056759;28;802;-57
2022/05/25 00:37:55;;;;;;;;;;;;;;;18.02;45.94;100841.47;5056961;28;826;-57
2022/05/25 00:40:23;;;;;;;;;;;;;;;18.05;45.75;100838.16;5072900;28;1967;-56
2022/05/25 00:42:49;;;;;;;;;;;;;;;18.10;45.71;100845.56;5056378;28;813;-57
2022/05/25 00:45:14;;;;;;;;;;;;;;;18.09;45.80;100847.50;5057751;28;824;-57
2022/05/25 00:47:40;;;;;;;;;;;;;;;18.14;45.85;100846.63;5062780;28;954;-57
2022/05/25 00:50:06;;;;;;;;;;;;;;;18.19;45.72;100843.03;5039016;28;816;-56
2022/05/25 00:52:31;;;;;;;;;;;;;;;18.17;45.82;100840.56;5058373;28;910;-56
2022/05/25 00:55:04;;;;;;;;;;;;;;;18.20;45.99;100840.00;5056785;28;793;-56
2022/05/25 00:57:30;;;;;;;;;;;;;;;18.22;45.75;100836.97;5070199;28;778;-57
2022/05/25 00:59:55;;;;;;;;;;;;;;;18.27;45.92;100840.53;5056190;28;1966;-56
2022/05/25 01:02:21;;;;;;;;;;;;;;;18.20;45.47;100839.16;5056603;28;837;-56
2022/05/25 01:04:47;;;;;;;;;;;;;;;18.07;44.72;100841.44;5043855;28;837;-57
2022/05/25 01:07:19;;;;;;;;;;;;;;;17.87;43.57;100836.00;5056210;28;878;-56
2022/05/25 01:09:51;;;;;;;;;;;;;;;17.65;42.61;100839.09;5039224;28;741;-57
2022/05/25 01:12:20;;;;;;;;;;;;;;;17.49;41.66;100841.88;5069351;28;799;-57
2022/05/25 01:14:57;;;;;;;;;;;;;;;17.40;40.99;100843.53;5056128;28;1013;-56
2022/05/25 01:17:23;;;;;;;;;;;;;;;17.30;40.47;100836.13;5066378;28;903;-57
2022/05/25 01:19:48;;;;;;;;;;;;;;;17.20;40.10;100841.66;5056248;28;1972;-57
2022/05/25 01:22:20;;;;;;;;;;;;;;;17.04;40.00;100836.16;5056567;28;868;-57
2022/05/25 01:24:48;;;;;;;;;;;;;;;16.97;39.88;100834.78;5056011;28;806;-57
2022/05/25 01:27:32;;;;;;;;;;;;;;;16.91;39.66;100842.19;5056141;28;746;-57
2022/05/25 01:29:58;;;;;;;;;;;;;;;16.80;39.66;100837.75;5062166;28;734;-58
2022/05/25 01:32:39;;;;;;;;;;;;;;;16.84;39.86;100838.88;5057981;28;773;-56
2022/05/25 01:35:04;;;;;;;;;;;;;;;16.98;40.82;100848.22;5074806;28;834;-56
2022/05/25 01:37:46;;;;;;;;;;;;;;;17.15;42.41;100836.16;5075481;28;881;-56
2022/05/25 01:40:23;;;;;;;;;;;;;;;17.56;43.86;100836.91;5050641;28;1898;-56
2022/05/25 01:42:59;;;;;;;;;;;;;;;17.83;45.91;100852.22;5051036;28;881;-56
2022/05/25 01:45:25;;;;;;;;;;;;;;;18.09;47.18;100844.72;5044560;28;840;-55
2022/05/25 01:47:50;;;;;;;;;;;;;;;18.34;48.07;100855.91;5046890;28;771;-55
2022/05/25 01:50:28;;;;;;;;;;;;;;;18.44;48.57;100842.91;5042463;28;770;-56
2022/05/25 01:52:54;;;;;;;;;;;;;;;18.63;49.14;100848.56;5042449;28;802;-56
2022/05/25 01:55:24;;;;;;;;;;;;;;;18.60;48.89;100831.78;5065623;28;821;-55
2022/05/25 01:57:50;;;;;;;;;;;;;;;18.38;48.02;100841.28;5042438;28;854;-56
2022/05/25 02:00:45;;;;;;;;;;;;;;;18.12;46.04;100844.16;5043734;28;1906;-56
2022/05/25 02:06:01;;;;;;;;;;;;;;;17.53;42.67;100842.97;5079010;28;830;-58
2022/05/25 02:08:32;;;;;;;;;;;;;;;17.48;41.60;100848.47;5070024;28;812;-56
2022/05/25 02:11:15;;;;;;;;;;;;;;;17.30;41.14;100855.38;5059914;28;807;-56
2022/05/25 02:13:50;;;;;;;;;;;;;;;17.21;40.57;100848.78;5041497;28;1172;-57
2022/05/25 02:16:21;;;;;;;;;;;;;;;17.09;40.68;100855.38;5064196;28;877;-56
2022/05/25 02:18:56;;;;;;;;;;;;;;;17.03;40.18;100861.16;5059682;28;816;-58
2022/05/25 02:21:30;;;;;;;;;;;;;;;16.95;39.96;100865.25;5065928;28;1914;-56
2022/05/25 02:24:04;;;;;;;;;;;;;;;16.94;39.77;100869.09;5041592;28;743;-57
2022/05/25 02:26:31;;;;;;;;;;;;;;;16.91;40.08;100869.66;5041836;28;806;-57
2022/05/25 02:29:32;;;;;;;;;;;;;;;17.01;40.81;100869.69;5040752;28;884;-57
2022/05/25 02:32:14;;;;;;;;;;;;;;;17.15;42.30;100858.13;4993850;28;1279;-57
2022/05/25 02:34:40;;;;;;;;;;;;;;;17.34;43.25;100864.72;5038452;28;873;-57
2022/05/25 02:37:06;;;;;;;;;;;;;;;17.41;43.87;100857.00;5059256;28;788;-56
2022/05/25 02:39:31;;;;;;;;;;;;;;;17.49;44.47;100868.53;5041182;28;1898;-56
2022/05/25 02:41:57;;;;;;;;;;;;;;;17.52;44.75;100863.31;5041359;28;794;-56
2022/05/25 02:44:22;;;;;;;;;;;;;;;17.59;45.37;100866.59;5059194;28;762;-56
2022/05/25 02:46:48;;;;;;;;;;;;;;;17.67;45.58;100869.88;5066287;28;774;-56
2022/05/25 02:49:13;;;;;;;;;;;;;;;17.73;45.38;100877.84;5059217;28;790;-57
2022/05/25 02:51:39;;;;;;;;;;;;;;;17.78;45.44;100875.09;5058995;28;749;-56
2022/05/25 02:54:05;;;;;;;;;;;;;;;17.78;45.49;100872.34;5058554;28;762;-56
2022/05/25 02:56:30;;;;;;;;;;;;;;;17.85;45.61;100877.53;5058695;28;963;-56
2022/05/25 02:58:56;;;;;;;;;;;;;;;17.90;45.50;100880.25;5061785;28;801;-56
2022/05/25 03:01:21;;;;;;;;;;;;;;;17.88;45.74;100893.47;5062938;28;1914;-56
2022/05/25 03:03:47;;;;;;;;;;;;;;;17.89;45.67;100889.63;5060437;28;789;-56
2022/05/25 03:06:12;;;;;;;;;;;;;;;17.93;45.60;100890.72;5058977;28;766;-57
2022/05/25 03:08:37;;;;;;;;;;;;;;;17.92;45.85;100888.25;5058832;28;754;-56
2022/05/25 03:11:03;;;;;;;;;;;;;;;18.02;45.61;100899.25;5055832;28;924;-57
2022/05/25 03:13:29;;;;;;;;;;;;;;;18.07;45.91;100896.47;5074563;28;996;-56
2022/05/25 03:15:57;;;;;;;;;;;;;;;18.10;45.73;100893.19;5072087;28;1083;-57
2022/05/25 03:18:23;;;;;;;;;;;;;;;18.06;46.00;100894.84;5077350;28;827;-58
2022/05/25 03:20:50;;;;;;;;;;;;;;;18.10;45.74;100906.09;5077547;28;1914;-57
2022/05/25 03:23:17;;;;;;;;;;;;;;;18.12;45.63;100910.22;5075571;28;872;-57
2022/05/25 03:25:43;;;;;;;;;;;;;;;18.16;45.87;100917.91;5070759;28;1246;-57
2022/05/25 03:28:08;;;;;;;;;;;;;;;18.20;46.16;100916.22;5071152;28;849;-56
2022/05/25 03:30:34;;;;;;;;;;;;;;;18.23;45.86;100915.66;5059063;28;1148;-57
2022/05/25 03:33:00;;;;;;;;;;;;;;;18.28;46.29;100923.91;5053141;28;1111;-56
2022/05/25 03:35:25;;;;;;;;;;;;;;;18.22;45.75;100925.88;5057472;28;740;-55
2022/05/25 03:37:50;;;;;;;;;;;;;;;18.11;44.92;100921.50;5064038;28;791;-55
2022/05/25 03:40:16;;;;;;;;;;;;;;;17.92;43.78;100926.78;5058077;28;1979;-55
2022/05/25 03:42:41;;;;;;;;;;;;;;;17.67;42.59;100925.72;5058128;28;1376;-55
2022/05/25 03:45:07;;;;;;;;;;;;;;;17.53;42.05;100919.94;5056715;28;895;-55
2022/05/25 03:47:33;;;;;;;;;;;;;;;17.40;41.13;100921.34;5059100;28;814;-54
2022/05/25 03:49:58;;;;;;;;;;;;;;;17.33;40.66;100925.44;5063534;28;842;-55
2022/05/25 03:52:24;;;;;;;;;;;;;;;17.30;40.24;100926.81;5058450;28;822;-55
2022/05/25 03:54:50;;;;;;;;;;;;;;;17.21;40.79;100923.81;5059363;28;1369;-57
2022/05/25 03:57:15;;;;;;;;;;;;;;;17.27;41.74;100927.38;5073464;28;805;-55
2022/05/25 03:59:40;;;;;;;;;;;;;;;17.24;42.66;100937.00;5064338;28;1917;-55
2022/05/25 04:02:06;;;;;;;;;;;;;;;17.23;42.40;100926.28;5067840;28;820;-54
2022/05/25 04:04:31;;;;;;;;;;;;;;;17.23;42.29;100927.09;5059270;28;804;-54
2022/05/25 04:06:57;;;;;;;;;;;;;;;17.38;42.27;100933.72;5061853;28;835;-55
2022/05/25 04:09:22;;;;;;;;;;;;;;;17.22;41.75;100928.22;5057184;28;1474;-54
2022/05/25 04:11:48;;;;;;;;;;;;;;;17.43;43.53;100941.94;5057432;28;873;-54
2022/05/25 04:14:15;;;;;;;;;;;;;;;17.52;44.04;100939.47;5039410;28;1125;-54
2022/05/25 04:16:44;;;;;;;;;;;;;;;17.51;43.84;100938.63;5065075;28;1120;-54
2022/05/25 04:19:09;;;;;;;;;;;;;;;17.44;42.91;100938.91;5057180;28;1909;-54
2022/05/25 04:21:35;;;;;;;;;;;;;;;17.32;42.57;100945.78;5056952;28;881;-54
2022/05/25 04:24:01;;;;;;;;;;;;;;;17.22;42.41;100947.44;5057349;28;841;-54
2022/05/25 04:26:28;;;;;;;;;;;;;;;17.22;42.10;100943.84;5056916;28;781;-53
2022/05/25 04:28:53;;;;;;;;;;;;;;;17.16;42.40;100939.47;5056830;28;891;-53
2022/05/25 04:31:19;;;;;;;;;;;;;;;17.08;41.95;100936.16;5059460;28;934;-53
2022/05/25 04:33:44;;;;;;;;;;;;;;;17.06;41.28;100935.59;5056841;28;822;-54
2022/05/25 04:36:10;;;;;;;;;;;;;;;17.01;40.80;100935.63;5057094;28;827;-54
2022/05/25 04:38:36;;;;;;;;;;;;;;;16.96;40.84;100926.50;5056909;28;901;-53
2022/05/25 04:41:01;;;;;;;;;;;;;;;16.98;40.01;100936.13;5062440;28;1906;-54
2022/05/25 04:43:27;;;;;;;;;;;;;;;16.87;39.79;100945.41;5057289;28;728;-53
2022/05/25 04:45:52;;;;;;;;;;;;;;;16.89;39.91;100946.84;5074989;28;833;-54
2022/05/25 04:48:23;;;;;;;;;;;;;;;16.80;39.81;100948.41;5057121;28;844;-53
2022/05/25 04:50:49;;;;;;;;;;;;;;;16.77;39.95;100952.56;5076669;28;805;-54
2022/05/25 04:53:14;;;;;;;;;;;;;;;16.82;39.61;100948.19;5069335;28;886;-54
2022/05/25 04:58:24;;;;;;;;;;;;;;;16.86;39.36;100957.53;5056073;28;838;-54
2022/05/25 05:00:50;;;;;;;;;;;;;;;16.74;39.21;100964.06;5069833;28;1906;-55
2022/05/25 05:03:16;;;;;;;;;;;;;;;16.74;39.23;100972.28;5062180;28;918;-54
2022/05/25 05:05:41;;;;;;;;;;;;;;;16.69;39.51;100965.97;5057017;28;916;-56
2022/05/25 05:08:07;;;;;;;;;;;;;;;16.66;39.50;100969.25;5069546;28;1250;-55
2022/05/25 05:10:33;;;;;;;;;;;;;;;16.62;39.21;100974.47;5065183;28;1071;-55
2022/05/25 05:12:59;;;;;;;;;;;;;;;16.55;39.39;100971.97;5075851;28;1032;-55
2022/05/25 05:15:24;;;;;;;;;;;;;;;16.56;39.45;100979.13;5071627;28;1314;-55
2022/05/25 05:17:49;;;;;;;;;;;;;;;16.52;39.50;100979.91;5062444;28;948;-55
2022/05/25 05:20:35;;;;;;;;;;;;;;;16.56;39.27;100987.38;5056095;28;1906;-55
2022/05/25 05:23:00;;;;;;;;;;;;;;;16.46;39.40;100991.97;5038344;28;1003;-54
2022/05/25 05:25:26;;;;;;;;;;;;;;;16.46;39.32;100994.72;5056444;28;830;-54
2022/05/25 05:27:52;;;;;;;;;;;;;;;16.45;39.53;100991.13;5056273;28;1043;-55
2022/05/25 05:30:18;;;;;;;;;;;;;;;16.36;39.73;100993.56;5057829;28;731;-55
2022/05/25 05:32:44;;;;;;;;;;;;;;;16.40;39.38;100999.34;5059336;28;874;-55
2022/05/25 05:35:09;;;;;;;;;;;;;;;16.53;39.04;101000.78;5062326;28;1235;-54
2022/05/25 05:37:45;;;;;;;;;;;;;;;16.42;40.18;100989.78;5055799;28;1231;-55
2022/05/25 05:40:11;;;;;;;;;;;;;;;16.39;40.22;100998.50;5050607;28;1898;-49
2022/05/25 05:42:39;;;;;;;;;;;;;;;16.44;41.32;100995.00;5053906;28;1063;-54
2022/05/25 05:45:08;;;;;;;;;;;;;;;16.39;40.72;101001.25;5064387;28;1503;-55
2022/05/25 05:47:41;;;;;;;;;;;;;;;16.35;40.53;101000.13;5043871;28;1474;-54
2022/05/25 05:50:07;;;;;;;;;;;;;;;16.34;40.53;100997.66;5066432;28;1559;-54
2022/05/25 05:52:32;;;;;;;;;;;;;;;16.38;40.47;101007.88;5067486;28;865;-54
2022/05/25 05:54:58;;;;;;;;;;;;;;;16.28;40.49;100999.56;5037772;28;901;-54
2022/05/25 05:57:23;;;;;;;;;;;;;;;16.32;40.41;101000.69;5062226;28;1003;-53
2022/05/25 05:59:49;;;;;;;;;;;;;;;16.30;40.29;101008.38;5063698;28;1967;-51
2022/05/25 06:02:14;;;;;;;;;;;;;;;16.29;40.31;101003.16;5058688;28;1050;-49
2022/05/25 06:04:40;;;;;;;;;;;;;;;16.27;40.20;100999.81;5055736;28;833;-55
2022/05/25 06:07:05;;;;;;;;;;;;;;;16.25;40.46;101013.81;5056126;28;810;-54
2022/05/25 06:09:31;;;;;;;;;;;;;;;16.21;40.47;101015.44;5060244;28;1183;-56
2022/05/25 06:11:56;;;;;;;;;;;;;;;16.20;40.63;101013.78;5060146;28;1096;-55
2022/05/25 06:14:22;;;;;;;;;;;;;;;16.18;40.54;101018.72;5057870;28;1271;-55
2022/05/25 06:19:33;;;;;;;;;;;;;;;16.21;40.28;101009.94;5059990;28;1906;-53
2022/05/25 06:22:00;;;;;;;;;;;;;;;16.22;40.53;101017.09;5061571;28;790;-58
2022/05/25 06:24:26;;;;;;;;;;;;;;;16.32;41.31;101019.06;5067297;28;798;-57
2022/05/25 06:26:51;;;;;;;;;;;;;;;16.53;42.18;101025.50;5062774;28;878;-56
2022/05/25 06:29:19;;;;;;;;;;;;;;;16.74;43.06;101026.41;5061907;28;758;-56
2022/05/25 06:31:44;;;;;;;;;;;;;;;16.92;44.02;101042.44;5070473;28;835;-54
2022/05/25 06:34:10;;;;;;;;;;;;;;;17.06;44.70;101048.25;5059463;28;881;-54
2022/05/25 06:36:35;;;;;;;;;;;;;;;17.10;45.47;101043.84;5065425;28;861;-56
2022/05/25 06:39:01;;;;;;;;;;;;;;;17.17;45.75;101043.59;5058873;28;1106;-54
2022/05/25 06:41:26;;;;;;;;;;;;;;;17.24;46.37;101044.16;5059047;28;1906;-55
2022/05/25 06:43:52;;;;;;;;;;;;;;;17.35;46.36;101044.19;5062946;28;1028;-54
2022/05/25 06:46:19;;;;;;;;;;;;;;;17.45;46.54;101044.22;5042425;28;1333;-56
2022/05/25 06:48:45;;;;;;;;;;;;;;;17.58;47.16;101046.41;5074793;28;1301;-57
2022/05/25 06:51:11;;;;;;;;;;;;;;;17.49;46.67;101050.81;5071598;28;965;-56
2022/05/25 06:53:36;;;;;;;;;;;;;;;17.36;45.74;101048.59;5070615;28;1262;-59
2022/05/25 06:56:02;;;;;;;;;;;;;;;17.26;44.40;101043.91;5073274;28;1222;-58
2022/05/25 06:58:27;;;;;;;;;;;;;;;17.06;43.42;101053.75;5078357;28;823;-59
2022/05/25 07:00:53;;;;;;;;;;;;;;;16.95;42.58;101043.81;5071348;28;1979;-61
2022/05/25 07:03:18;;;;;;;;;;;;;;;16.91;41.85;101059.19;5058603;28;1065;-57
2022/05/25 07:05:44;;;;;;;;;;;;;;;16.91;41.37;101050.94;5057518;28;838;-61
2022/05/25 07:08:09;;;;;;;;;;;;;;;16.72;41.47;101059.63;5057496;28;893;-62
2022/05/25 07:10:34;;;;;;;;;;;;;;;16.64;41.17;101057.38;5060780;28;1095;-57
2022/05/25 07:13:00;;;;;;;;;;;;;;;16.65;41.01;101059.06;5077525;28;889;-59
2022/05/25 07:15:25;;;;;;;;;;;;;;;16.58;40.78;101050.22;5064787;28;1057;-58
2022/05/25 07:17:51;;;;;;;;;;;;;;;16.57;40.82;101062.31;5069919;28;1091;-56
2022/05/25 07:20:16;;;;;;;;;;;;;;;16.54;40.82;101057.34;5058259;28;1957;-58
2022/05/25 07:22:42;;;;;;;;;;;;;;;16.49;40.81;101060.88;5058952;28;734;-58
2022/05/25 07:25:07;;;;;;;;;;;;;;;16.65;42.13;101059.06;5062547;28;1088;-64
2022/05/25 07:27:33;;;;;;;;;;;;;;;16.57;41.51;101059.56;5070145;28;1007;-60
2022/05/25 07:29:58;;;;;;;;;;;;;;;16.53;41.47;101069.41;5072499;28;1087;-60
2022/05/25 07:32:24;;;;;;;;;;;;;;;16.63;43.26;101066.72;5063737;28;1064;-62
2022/05/25 07:34:54;;;;;;;;;;;;;;;16.66;42.09;101066.19;5077195;28;829;-64
2022/05/25 07:37:21;;;;;;;;;;;;;;;16.51;41.84;101068.84;5059712;28;989;-65
2022/05/25 07:39:49;;;;;;;;;;;;;;;16.51;41.09;101063.34;5063784;28;1934;-58
2022/05/25 07:42:15;;;;;;;;;;;;;;;16.49;40.98;101060.88;5076237;28;810;-64
2022/05/25 07:45:01;;;;;;;;;;;;;;;16.51;41.32;101064.19;5077636;28;817;-64
2022/05/25 07:47:27;;;;;;;;;;;;;;;16.49;41.45;101073.78;5057162;28;1368;-59
2022/05/25 07:49:52;;;;;;;;;;;;;;;16.50;40.69;101078.19;5058353;28;1027;-64
2022/05/25 07:52:18;;;;;;;;;;;;;;;16.54;41.29;101084.81;5059078;28;1406;-57
2022/05/25 07:54:44;;;;;;;;;;;;;;;16.52;41.22;101081.47;5058734;28;1084;-62
2022/05/25 07:57:10;;;;;;;;;;;;;;;16.46;41.02;101085.28;5049489;28;1206;-63
2022/05/25 07:59:35;;;;;;;;;;;;;;;16.46;40.71;101082.56;5065207;28;1963;-63
2022/05/25 08:07:29;;;;;;;;;;;;;;;16.49;41.22;101093.00;5057810;28;766;-57
2022/05/25 08:09:56;;;;;;;;;;;;;;;16.65;42.69;101102.13;5046459;28;1246;-58
2022/05/25 08:12:22;;;;;;;;;;;;;;;16.63;42.67;101096.91;5059109;28;913;-60
2022/05/25 08:14:47;;;;;;;;;;;;;;;16.51;42.05;101102.63;5055604;28;1273;-59
2022/05/25 08:17:13;;;;;;;;;;;;;;;16.52;41.21;101106.19;5069505;28;953;-59
2022/05/25 08:19:38;;;;;;;;;;;;;;;16.74;42.41;101106.84;5057368;28;1969;-60
2022/05/25 08:22:04;;;;;;;;;;;;;;;16.75;42.95;101103.03;5057132;28;741;-54
2022/05/25 08:24:30;;;;;;;;;;;;;;;16.77;42.96;101111.84;5057500;28;823;-59
2022/05/25 08:26:55;;;;;;;;;;;;;;;16.83;42.81;101114.59;5057262;28;949;-57
2022/05/25 08:29:24;;;;;;;;;;;;;;;16.89;42.75;101116.31;5061041;28;813;-60
2022/05/25 08:31:53;;;;;;;;;;;;;;;16.82;42.36;101113.78;5063894;28;969;-58
2022/05/25 08:34:18;;;;;;;;;;;;;;;16.72;41.84;101117.28;5067431;28;1640;-57
2022/05/25 08:36:44;;;;;;;;;;;;;;;16.63;41.37;101121.63;5065473;28;1201;-57
2022/05/25 08:39:09;;;;;;;;;;;;;;;16.60;41.11;101112.00;5063604;28;1408;-57
2022/05/25 08:41:35;;;;;;;;;;;;;;;16.58;41.00;101129.84;5064484;28;1910;-60
2022/05/25 08:44:01;;;;;;;;;;;;;;;16.49;40.95;101131.44;5056251;28;905;-60
2022/05/25 08:46:26;;;;;;;;;;;;;;;16.50;40.88;101130.34;5064274;28;949;-56
2022/05/25 08:48:52;;;;;;;;;;;;;;;16.46;40.96;101121.78;5059939;28;1154;-58
2022/05/25 08:51:18;;;;;;;;;;;;;;;16.61;41.84;101134.81;5058875;28;1395;-57
2022/05/25 08:53:44;;;;;;;;;;;;;;;16.62;42.78;101125.47;5070705;28;1270;-56
2022/05/25 08:56:19;;;;;;;;;;;;;;;16.73;42.99;101121.69;5066015;28;747;-59
2022/05/25 08:58:44;;;;;;;;;;;;;;;16.73;42.88;101126.34;5063711;28;773;-55
2022/05/25 09:01:10;;;;;;;;;;;;;;;16.76;42.80;101129.41;5066030;28;1906;-55
2022/05/25 09:03:39;;;;;;;;;;;;;;;16.82;42.98;101121.19;5041595;28;838;-55
2022/05/25 09:06:07;;;;;;;;;;;;;;;16.83;43.08;101131.06;5056463;28;837;-56
2022/05/25 09:08:41;;;;;;;;;;;;;;;16.86;42.67;101136.06;5064632;28;1221;-57
2022/05/25 09:11:14;;;;;;;;;;;;;;;16.74;42.64;101126.06;5057818;28;794;-55
2022/05/25 09:13:43;;;;;;;;;;;;;;;16.85;42.57;101134.41;5056795;28;1166;-56
2022/05/25 09:16:16;;;;;;;;;;;;;;;16.81;42.58;101127.78;5031233;28;1219;-58
2022/05/25 09:18:43;;;;;;;;;;;;;;;16.77;42.71;101133.81;5034004;28;1147;-58
2022/05/25 09:21:08;;;;;;;;;;;;;;;16.72;42.30;101133.78;5034084;28;1898;-55
2022/05/25 09:23:34;;;;;;;;;;;;;;;16.72;41.75;101128.28;5034380;28;1131;-64
2022/05/25 09:25:59;;;;;;;;;;;;;;;16.68;41.06;101126.34;5030941;28;1079;-60
2022/05/25 09:28:28;;;;;;;;;;;;;;;16.60;40.82;101124.91;5032238;28;1048;-60
2022/05/25 09:30:56;;;;;;;;;;;;;;;16.65;41.86;101132.34;5025120;28;1171;-58
2022/05/25 09:33:54;;;;;;;;;;;;;;;16.65;42.49;101124.94;5021284;28;874;-59
2022/05/25 09:36:25;;;;;;;;;;;;;;;16.80;42.54;101120.63;4995922;28;1208;-60
2022/05/25 09:39:06;;;;;;;;;;;;;;;16.67;42.10;101125.50;5035568;28;833;-61
2022/05/25 09:41:32;;;;;;;;;;;;;;;16.60;41.31;101122.16;5032092;28;1910;-66
2022/05/25 09:43:58;;;;;;;;;;;;;;;16.57;41.21;101119.94;5035162;28;878;-64
2022/05/25 09:46:41;;;;;;;;;;;;;;;16.51;40.78;101121.00;5026464;28;1487;-64
2022/05/25 09:49:07;;;;;;;;;;;;;;;16.47;40.81;101128.13;5030681;28;1076;-62
2022/05/25 09:51:35;;;;;;;;;;;;;;;16.41;40.73;101127.25;5031084;28;1092;-59
2022/05/25 09:54:02;;;;;;;;;;;;;;;16.42;40.67;101127.00;5016970;28;801;-59
2022/05/25 09:56:29;;;;;;;;;;;;;;;16.40;40.31;101134.66;5016270;28;912;-61
2022/05/25 09:58:56;;;;;;;;;;;;;;;16.33;40.57;101122.28;5023546;28;915;-60
2022/05/25 10:01:27;;;;;;;;;;;;;;;16.42;40.69;101126.16;5035113;28;1986;-62
2022/05/25 10:03:52;;;;;;;;;;;;;;;16.30;41.21;101129.09;5035072;28;782;-61
2022/05/25 10:06:44;;;;;;;;;;;;;;;16.34;40.94;101113.78;5039066;28;898;-60
2022/05/25 10:09:18;;;;;;;;;;;;;;;16.32;40.50;101123.34;5023742;28;1711;-63
2022/05/25 10:11:45;;;;;;;;;;;;;;;16.34;40.30;101118.41;5029260;28;1179;-63
2022/05/25 10:14:24;;;;;;;;;;;;;;;16.28;40.31;101119.47;5037103;28;1426;-62
2022/05/25 10:16:50;;;;;;;;;;;;;;;16.29;40.31;101115.66;5046316;28;1206;-57
2022/05/25 10:19:18;;;;;;;;;;;;;;;16.24;40.62;101110.94;5071640;28;1348;-60
2022/05/25 10:21:48;;;;;;;;;;;;;;;16.32;41.76;101104.97;5064758;28;1906;-59
2022/05/25 10:24:15;;;;;;;;;;;;;;;16.42;42.73;101121.50;5063721;28;1068;-59
2022/05/25 10:26:45;;;;;;;;;;;;;;;16.36;42.47;101114.31;5048828;28;1079;-57
2022/05/25 10:29:12;;;;;;;;;;;;;;;16.35;41.74;101109.91;5048022;28;973;-59
2022/05/25 10:37:18;;;;;;;;;;;;;;;16.26;40.72;101106.03;5065145;28;1285;-62
2022/05/25 10:39:45;;;;;;;;;;;;;;;16.25;40.44;101112.59;5073159;28;1953;-59
2022/05/25 10:42:11;;;;;;;;;;;;;;;16.20;40.57;101102.41;5067423;28;1254;-61
2022/05/25 10:44:55;;;;;;;;;;;;;;;16.14;40.70;101106.19;5078329;28;857;-59
2022/05/25 10:47:24;;;;;;;;;;;;;;;16.20;40.57;101118.88;5077166;28;950;-60
2022/05/25 10:49:49;;;;;;;;;;;;;;;16.32;41.65;101099.47;5071627;28;1158;-64
2022/05/25 10:52:32;;;;;;;;;;;;;;;16.53;42.65;101105.09;5054548;28;1191;-67
2022/05/25 10:54:58;;;;;;;;;;;;;;;16.79;44.01;101108.81;5046856;28;1092;-62
2022/05/25 10:57:26;;;;;;;;;;;;;;;16.87;44.86;101107.47;5060567;28;763;-57
2022/05/25 11:00:03;;;;;;;;;;;;;;;17.05;45.12;101103.47;5071714;28;1987;-61
2022/05/25 11:02:41;;;;;;;;;;;;;;;17.08;45.85;101095.53;5070862;28;905;-63
2022/05/25 11:05:13;;;;;;;;;;;;;;;17.22;46.20;101106.00;5059000;28;854;-59
2022/05/25 11:07:39;;;;;;;;;;;;;;;17.28;46.55;101096.69;5063540;28;1102;-62
2022/05/25 11:10:08;;;;;;;;;;;;;;;17.33;46.71;101102.19;5067884;28;1037;-60
2022/05/25 11:12:43;;;;;;;;;;;;;;;17.42;46.79;101106.06;5053213;28;1135;-60
2022/05/25 11:15:08;;;;;;;;;;;;;;;17.50;46.77;101106.63;5061366;28;1248;-60
2022/05/25 11:17:42;;;;;;;;;;;;;;;17.44;46.41;101103.84;5068063;28;1276;-63
2022/05/25 11:20:26;;;;;;;;;;;;;;;17.34;45.51;101109.34;5071412;28;1906;-66
2022/05/25 11:22:58;;;;;;;;;;;;;;;17.16;44.00;101107.09;5072772;28;1091;-62
2022/05/25 11:25:42;;;;;;;;;;;;;;;16.98;43.20;101111.94;5071315;28;1355;-61
2022/05/25 11:28:15;;;;;;;;;;;;;;;16.87;42.09;101104.72;5067607;28;1418;-63
2022/05/25 11:30:43;;;;;;;;;;;;;;;16.82;41.81;101112.97;5050515;28;1224;-62
2022/05/25 11:33:27;;;;;;;;;;;;;;;16.73;41.29;101112.63;5067231;28;1499;-66
2022/05/25 11:36:08;;;;;;;;;;;;;;;16.70;41.24;101110.41;5064341;28;1329;-63
2022/05/25 11:38:33;;;;;;;;;;;;;;;16.64;41.04;101106.81;5048487;28;1437;-61
2022/05/25 11:41:02;;;;;;;;;;;;;;;16.56;41.00;101097.16;5064893;28;1906;-67
2022/05/25 11:43:46;;;;;;;;;;;;;;;16.54;40.84;101112.25;5061132;28;1060;-61
2022/05/25 11:46:32;;;;;;;;;;;;;;;16.53;40.96;101110.59;5062185;28;1019;-60
2022/05/25 11:49:02;;;;;;;;;;;;;;;16.50;40.48;101117.44;5059244;28;1461;-59
2022/05/25 11:51:47;;;;;;;;;;;;;;;16.46;40.54;101104.50;5047643;28;1220;-60
2022/05/25 11:54:41;;;;;;;;;;;;;;;16.42;40.51;101099.56;5066294;28;824;-62
2022/05/25 11:57:10;;;;;;;;;;;;;;;16.37;40.65;101096.78;4969786;28;1114;-62
2022/05/25 11:59:39;;;;;;;;;;;;;;;16.35;40.74;101087.97;5057885;28;1963;-59
2022/05/25 12:02:04;;;;;;;;;;;;;;;16.30;40.72;101090.69;5064479;28;1173;-63
2022/05/25 12:04:33;;;;;;;;;;;;;;;16.30;40.51;101095.34;5067103;28;1079;-61
2022/05/25 12:07:14;;;;;;;;;;;;;;;16.28;40.78;101084.63;5043226;28;774;-60
2022/05/25 12:09:39;;;;;;;;;;;;;;;16.25;40.39;101088.72;5066750;28;1294;-61
2022/05/25 12:12:05;;;;;;;;;;;;;;;16.22;40.54;101094.72;5070148;28;1059;-59
2022/05/25 12:14:34;;;;;;;;;;;;;;;16.24;40.53;101092.56;5067912;28;1167;-58
2022/05/25 12:17:19;;;;;;;;;;;;;;;16.25;40.50;101104.38;5043129;28;1040;-61
2022/05/25 12:19:45;;;;;;;;;;;;;;;16.18;40.77;101096.34;5063922;28;1911;-58
2022/05/25 12:22:15;;;;;;;;;;;;;;;16.15;40.56;101099.63;5077151;28;1059;-60
2022/05/25 12:24:43;;;;;;;;;;;;;;;16.14;40.59;101094.41;5057898;28;1118;-58
2022/05/25 12:27:10;;;;;;;;;;;;;;;16.16;40.50;101089.47;5054736;28;845;-57
2022/05/25 12:29:46;;;;;;;;;;;;;;;16.18;40.50;101087.31;5057698;28;914;-59
2022/05/25 12:32:11;;;;;;;;;;;;;;;16.21;40.78;101092.25;5047157;28;986;-59
2022/05/25 12:34:46;;;;;;;;;;;;;;;16.15;40.99;101085.09;5073074;28;1241;-62
2022/05/25 12:37:14;;;;;;;;;;;;;;;16.21;41.36;101093.06;5044873;28;1240;-58
2022/05/25 12:39:43;;;;;;;;;;;;;;;16.55;44.35;101084.53;5039496;28;1926;-61
2022/05/25 12:42:23;;;;;;;;;;;;;;;16.71;44.49;101090.91;5057226;28;822;-62
2022/05/25 12:50:33;;;;;;;;;;;;;;;17.10;45.45;101081.50;5069531;28;895;-61
2022/05/25 12:52:59;;;;;;;;;;;;;;;17.17;46.14;101081.25;5071975;28;1227;-60
2022/05/25 12:55:30;;;;;;;;;;;;;;;17.26;45.74;101090.63;5041944;28;1206;-64
2022/05/25 12:57:55;;;;;;;;;;;;;;;17.23;45.93;101072.75;5059340;28;838;-64
2022/05/25 13:00:22;;;;;;;;;;;;;;;17.32;45.89;101075.81;5056563;28;1905;-61
2022/05/25 13:02:47;;;;;;;;;;;;;;;17.33;46.03;101071.13;5068481;28;1301;-60
2022/05/25 13:05:31;;;;;;;;;;;;;;;17.51;45.84;101069.78;5073905;28;1133;-59
2022/05/25 13:07:57;;;;;;;;;;;;;;;17.37;45.77;101073.06;5067577;28;1135;-66
2022/05/25 13:10:31;;;;;;;;;;;;;;;17.25;44.96;101073.31;5070828;28;1044;-61
2022/05/25 13:12:58;;;;;;;;;;;;;;;17.10;43.55;101059.53;5066467;28;1147;-61
2022/05/25 13:15:24;;;;;;;;;;;;;;;16.98;43.08;101068.00;5046463;28;1001;-60
2022/05/25 13:17:50;;;;;;;;;;;;;;;16.98;43.31;101070.75;5063347;28;973;-61
2022/05/25 13:20:16;;;;;;;;;;;;;;;17.00;43.12;101070.47;5066412;28;1901;-64
2022/05/25 13:22:41;;;;;;;;;;;;;;;16.93;42.18;101070.75;5060326;28;745;-67
2022/05/25 13:25:08;;;;;;;;;;;;;;;16.78;41.78;101057.72;5040241;28;750;-62